createdAt,value
2017-09-27T00:00:16.353Z,64.76
2017-09-27T00:00:56.809Z,64.76
2017-09-27T00:01:37.279Z,64.76
2017-09-27T00:02:17.723Z,64.66
2017-09-27T00:02:58.156Z,64.66
2017-09-27T00:03:38.616Z,64.56
2017-09-27T00:04:19.072Z,64.76
2017-09-27T00:04:59.529Z,64.66
2017-09-27T00:05:39.986Z,64.56
2017-09-27T00:06:20.443Z,64.56
2017-09-27T00:07:00.895Z,64.66
2017-09-27T00:07:41.327Z,64.66
2017-09-27T00:08:21.784Z,64.56
2017-09-27T00:10:35.639Z,64.56
2017-09-27T00:11:16.079Z,64.76
2017-09-27T00:13:08.560Z,64.66
2017-09-27T00:15:21.723Z,64.66
2017-09-27T00:16:02.199Z,64.56
2017-09-27T00:16:42.648Z,64.66
2017-09-27T00:17:23.108Z,64.76
2017-09-27T00:18:03.553Z,64.95
2017-09-27T00:18:44.006Z,64.66
2017-09-27T00:19:24.459Z,64.86
2017-09-27T00:20:04.902Z,64.56
2017-09-27T00:20:45.358Z,64.66
2017-09-27T00:21:25.803Z,64.66
2017-09-27T00:22:06.253Z,64.86
2017-09-27T00:22:46.714Z,64.86
2017-09-27T00:23:27.183Z,64.76
2017-09-27T00:24:07.631Z,64.86
2017-09-27T00:24:48.084Z,64.66
2017-09-27T00:25:28.540Z,64.86
2017-09-27T00:26:08.992Z,64.76
2017-09-27T00:26:49.445Z,64.76
2017-09-27T00:27:29.900Z,64.56
2017-09-27T00:28:10.352Z,64.76
2017-09-27T00:28:50.796Z,64.95
2017-09-27T00:30:43.474Z,64.76
2017-09-27T00:31:24.209Z,64.66
2017-09-27T00:33:37.240Z,64.47
2017-09-27T00:35:29.985Z,64.56
2017-09-27T00:37:22.795Z,64.86
2017-09-27T00:38:03.408Z,64.47
2017-09-27T00:38:43.733Z,64.56
2017-09-27T00:39:24.181Z,64.86
2017-09-27T00:40:04.630Z,64.66
2017-09-27T00:40:45.081Z,64.76
2017-09-27T00:41:25.522Z,64.66
2017-09-27T00:42:05.984Z,64.66
2017-09-27T00:42:46.413Z,64.86
2017-09-27T00:43:26.865Z,64.66
2017-09-27T00:44:07.337Z,64.66
2017-09-27T00:44:47.775Z,64.66
2017-09-27T00:45:28.221Z,64.56
2017-09-27T00:46:08.676Z,64.56
2017-09-27T00:46:49.128Z,64.76
2017-09-27T00:47:30.624Z,64.47
2017-09-27T00:48:11.100Z,64.95
2017-09-27T00:48:51.549Z,64.56
2017-09-27T00:49:31.995Z,64.86
2017-09-27T00:50:12.446Z,64.95
2017-09-27T00:50:52.903Z,64.66
2017-09-27T00:51:33.366Z,64.66
2017-09-27T00:52:14.306Z,64.76
2017-09-27T00:52:54.534Z,64.76
2017-09-27T00:53:34.963Z,64.86
2017-09-27T00:54:15.417Z,64.66
2017-09-27T00:54:55.872Z,64.66
2017-09-27T00:55:36.320Z,64.56
2017-09-27T00:57:34.187Z,64.56
2017-09-27T00:58:14.617Z,64.66
2017-09-27T00:58:55.064Z,64.63
2017-09-27T00:59:35.515Z,64.66
2017-09-27T01:00:15.966Z,64.72
2017-09-27T01:00:56.447Z,64.66
2017-09-27T01:01:36.894Z,64.76
2017-09-27T01:02:17.347Z,64.76
2017-09-27T01:02:57.814Z,64.66
2017-09-27T01:03:38.276Z,64.56
2017-09-27T01:04:18.717Z,64.56
2017-09-27T01:04:59.173Z,64.47
2017-09-27T01:05:39.629Z,64.56
2017-09-27T01:06:20.084Z,64.56
2017-09-27T01:07:00.538Z,64.47
2017-09-27T01:07:40.985Z,64.66
2017-09-27T01:08:21.467Z,64.47
2017-09-27T01:09:01.894Z,64.47
2017-09-27T01:09:42.351Z,64.56
2017-09-27T01:10:22.807Z,64.47
2017-09-27T01:11:03.255Z,64.86
2017-09-27T01:11:43.708Z,64.86
2017-09-27T01:12:24.167Z,64.47
2017-09-27T01:13:04.624Z,64.76
2017-09-27T01:13:45.114Z,64.56
2017-09-27T01:14:25.541Z,64.56
2017-09-27T01:15:05.998Z,64.76
2017-09-27T01:15:46.454Z,64.76
2017-09-27T01:16:26.911Z,64.66
2017-09-27T01:17:07.366Z,64.56
2017-09-27T01:17:47.822Z,64.53
2017-09-27T01:18:28.281Z,64.47
2017-09-27T01:19:08.737Z,64.76
2017-09-27T01:19:49.192Z,64.56
2017-09-27T01:20:29.653Z,64.56
2017-09-27T01:21:10.110Z,64.76
2017-09-27T01:21:50.561Z,64.56
2017-09-27T01:22:31.023Z,64.56
2017-09-27T01:23:11.473Z,64.56
2017-09-27T01:23:51.933Z,64.76
2017-09-27T01:24:32.397Z,64.56
2017-09-27T01:25:12.847Z,64.72
2017-09-27T01:25:53.295Z,64.63
2017-09-27T01:26:33.746Z,64.76
2017-09-27T01:27:14.200Z,64.76
2017-09-27T01:27:54.645Z,64.56
2017-09-27T01:28:35.098Z,64.66
2017-09-27T01:29:15.549Z,64.56
2017-09-27T01:31:13.245Z,64.56
2017-09-27T01:31:53.696Z,64.95
2017-09-27T01:32:34.159Z,64.66
2017-09-27T01:33:14.612Z,64.56
2017-09-27T01:33:55.081Z,64.86
2017-09-27T01:34:35.517Z,64.86
2017-09-27T01:35:15.974Z,64.76
2017-09-27T01:35:56.426Z,64.86
2017-09-27T01:36:36.885Z,64.95
2017-09-27T01:37:17.347Z,64.66
2017-09-27T01:37:57.801Z,64.95
2017-09-27T01:38:38.264Z,64.82
2017-09-27T01:39:18.721Z,64.76
2017-09-27T01:39:59.179Z,64.86
2017-09-27T01:40:39.627Z,64.86
2017-09-27T01:41:20.089Z,64.53
2017-09-27T01:42:00.537Z,64.86
2017-09-27T01:42:40.989Z,64.56
2017-09-27T01:43:21.432Z,64.63
2017-09-27T01:44:01.869Z,64.56
2017-09-27T01:44:42.331Z,64.53
2017-09-27T01:45:22.789Z,64.63
2017-09-27T01:46:03.242Z,64.63
2017-09-27T01:46:43.696Z,64.43
2017-09-27T01:47:24.149Z,64.86
2017-09-27T01:48:04.606Z,64.53
2017-09-27T01:48:45.063Z,64.47
2017-09-27T01:49:25.512Z,64.63
2017-09-27T01:50:05.970Z,64.72
2017-09-27T01:50:46.432Z,64.72
2017-09-27T01:51:26.883Z,64.72
2017-09-27T01:53:39.645Z,64.43
2017-09-27T01:54:20.095Z,64.53
2017-09-27T01:55:00.542Z,64.53
2017-09-27T01:55:40.988Z,64.53
2017-09-27T01:56:21.432Z,64.63
2017-09-27T01:57:01.889Z,64.53
2017-09-27T01:57:42.360Z,64.76
2017-09-27T01:58:22.805Z,64.72
2017-09-27T01:59:03.250Z,64.72
2017-09-27T02:01:21.183Z,64.72
2017-09-27T02:02:01.635Z,64.72
2017-09-27T02:02:42.087Z,64.76
2017-09-27T02:03:22.541Z,64.72
2017-09-27T02:04:03.001Z,64.72
2017-09-27T02:04:43.453Z,64.53
2017-09-27T02:05:23.906Z,64.72
2017-09-27T02:06:04.362Z,64.76
2017-09-27T02:06:44.805Z,64.43
2017-09-27T02:07:25.260Z,64.72
2017-09-27T02:08:05.713Z,64.53
2017-09-27T02:08:46.175Z,64.43
2017-09-27T02:09:26.645Z,64.56
2017-09-27T02:10:07.092Z,64.53
2017-09-27T02:10:47.540Z,64.63
2017-09-27T02:11:27.999Z,64.63
2017-09-27T02:12:08.455Z,64.82
2017-09-27T02:12:48.899Z,64.63
2017-09-27T02:13:29.349Z,64.47
2017-09-27T02:14:09.797Z,64.63
2017-09-27T02:14:50.251Z,64.53
2017-09-27T02:15:30.701Z,64.53
2017-09-27T02:16:11.155Z,64.43
2017-09-27T02:16:51.606Z,64.63
2017-09-27T02:17:32.054Z,64.43
2017-09-27T02:18:12.503Z,64.86
2017-09-27T02:18:52.964Z,64.56
2017-09-27T02:19:33.410Z,64.43
2017-09-27T02:20:13.863Z,64.72
2017-09-27T02:20:54.309Z,64.92
2017-09-27T02:21:34.768Z,64.53
2017-09-27T02:22:15.226Z,64.95
2017-09-27T02:22:55.669Z,64.86
2017-09-27T02:23:36.119Z,64.92
2017-09-27T02:24:16.575Z,64.72
2017-09-27T02:24:57.028Z,64.92
2017-09-27T02:25:37.476Z,64.53
2017-09-27T02:26:17.942Z,65.01
2017-09-27T02:26:58.392Z,64.72
2017-09-27T02:27:38.844Z,64.72
2017-09-27T02:28:19.300Z,64.72
2017-09-27T02:28:59.759Z,64.82
2017-09-27T02:29:40.217Z,64.76
2017-09-27T02:30:20.669Z,65.01
2017-09-27T02:31:01.134Z,65.4
2017-09-27T02:31:41.586Z,65.2
2017-09-27T02:32:22.042Z,65.05
2017-09-27T02:33:02.494Z,65.01
2017-09-27T02:33:42.959Z,64.72
2017-09-27T02:34:23.404Z,65.11
2017-09-27T02:35:03.855Z,65.2
2017-09-27T02:35:44.312Z,65.01
2017-09-27T02:36:24.762Z,65.05
2017-09-27T02:37:05.218Z,64.76
2017-09-27T02:37:45.675Z,64.72
2017-09-27T02:38:26.131Z,64.86
2017-09-27T02:39:06.588Z,65.05
2017-09-27T02:39:47.046Z,65.14
2017-09-27T02:40:27.503Z,65.05
2017-09-27T02:41:07.950Z,65.14
2017-09-27T02:41:48.402Z,64.95
2017-09-27T02:42:28.866Z,65.14
2017-09-27T02:43:09.313Z,64.72
2017-09-27T02:43:49.764Z,64.92
2017-09-27T02:44:30.222Z,65.01
2017-09-27T02:45:10.672Z,64.82
2017-09-27T02:45:51.124Z,64.92
2017-09-27T02:46:31.588Z,64.72
2017-09-27T02:47:12.056Z,64.92
2017-09-27T02:47:52.497Z,64.95
2017-09-27T02:48:32.937Z,64.92
2017-09-27T02:49:13.394Z,65.05
2017-09-27T02:49:53.840Z,65.01
2017-09-27T02:50:34.302Z,65.11
2017-09-27T02:51:14.761Z,65.11
2017-09-27T02:51:55.205Z,64.76
2017-09-27T02:52:35.658Z,64.92
2017-09-27T02:53:16.108Z,64.92
2017-09-27T02:53:56.565Z,64.72
2017-09-27T02:54:37.013Z,64.92
2017-09-27T02:55:17.466Z,64.92
2017-09-27T02:55:57.919Z,64.92
2017-09-27T02:56:38.366Z,64.72
2017-09-27T02:57:18.817Z,64.82
2017-09-27T02:57:59.266Z,64.72
2017-09-27T02:58:39.717Z,64.72
2017-09-27T02:59:20.167Z,64.63
2017-09-27T03:00:00.613Z,64.72
2017-09-27T03:00:41.067Z,64.92
2017-09-27T03:01:21.524Z,64.92
2017-09-27T03:02:01.980Z,65.05
2017-09-27T03:02:42.434Z,64.63
2017-09-27T03:03:22.878Z,64.72
2017-09-27T03:04:03.327Z,64.92
2017-09-27T03:04:43.795Z,65.05
2017-09-27T03:05:24.241Z,64.92
2017-09-27T03:06:04.706Z,64.92
2017-09-27T03:06:45.164Z,64.72
2017-09-27T03:07:25.615Z,64.92
2017-09-27T03:09:43.443Z,64.43
2017-09-27T03:10:23.900Z,64.53
2017-09-27T03:11:04.351Z,64.43
2017-09-27T03:11:44.808Z,65.01
2017-09-27T03:12:25.276Z,64.92
2017-09-27T03:13:05.716Z,64.82
2017-09-27T03:13:46.156Z,65.01
2017-09-27T03:14:26.611Z,64.92
2017-09-27T03:15:07.040Z,64.82
2017-09-27T03:15:47.506Z,64.72
2017-09-27T03:16:27.965Z,64.82
2017-09-27T03:17:08.422Z,64.53
2017-09-27T03:17:48.873Z,64.43
2017-09-27T03:18:29.322Z,64.43
2017-09-27T03:19:09.794Z,64.63
2017-09-27T03:19:50.232Z,64.34
2017-09-27T03:20:30.694Z,64.63
2017-09-27T03:21:11.148Z,64.72
2017-09-27T03:21:51.606Z,64.53
2017-09-27T03:22:32.048Z,64.63
2017-09-27T03:23:12.501Z,64.63
2017-09-27T03:23:52.958Z,64.53
2017-09-27T03:24:33.424Z,64.72
2017-09-27T03:25:13.878Z,64.63
2017-09-27T03:25:54.335Z,64.63
2017-09-27T03:26:34.799Z,64.53
2017-09-27T03:27:15.248Z,64.82
2017-09-27T03:27:55.694Z,64.63
2017-09-27T03:28:36.130Z,64.53
2017-09-27T03:29:16.576Z,64.63
2017-09-27T03:29:57.027Z,64.82
2017-09-27T03:30:37.484Z,64.92
2017-09-27T03:31:17.940Z,64.76
2017-09-27T03:33:05.505Z,64.72
2017-09-27T03:33:45.951Z,64.82
2017-09-27T03:34:26.406Z,64.72
2017-09-27T03:35:06.864Z,64.82
2017-09-27T03:35:47.306Z,65.01
2017-09-27T03:36:27.757Z,64.72
2017-09-27T03:37:08.215Z,64.72
2017-09-27T03:37:48.668Z,64.82
2017-09-27T03:38:29.123Z,64.53
2017-09-27T03:39:09.578Z,64.63
2017-09-27T03:39:50.024Z,64.63
2017-09-27T03:40:30.474Z,64.63
2017-09-27T03:41:10.926Z,64.63
2017-09-27T03:41:51.391Z,64.82
2017-09-27T03:42:31.855Z,64.43
2017-09-27T03:43:12.303Z,64.63
2017-09-27T03:43:52.769Z,64.53
2017-09-27T03:44:33.227Z,64.76
2017-09-27T03:45:13.671Z,64.76
2017-09-27T03:45:54.126Z,64.53
2017-09-27T03:46:34.582Z,64.53
2017-09-27T03:47:15.037Z,64.63
2017-09-27T03:47:55.479Z,64.63
2017-09-27T03:48:35.935Z,64.63
2017-09-27T03:49:16.389Z,64.92
2017-09-27T03:49:56.846Z,65.11
2017-09-27T03:50:37.300Z,65.11
2017-09-27T03:51:17.752Z,65.11
2017-09-27T03:51:58.210Z,65.05
2017-09-27T03:52:38.663Z,64.92
2017-09-27T03:53:19.119Z,65.11
2017-09-27T03:53:59.573Z,64.82
2017-09-27T03:54:40.030Z,64.92
2017-09-27T03:55:20.484Z,64.63
2017-09-27T03:56:00.935Z,64.53
2017-09-27T03:56:41.390Z,64.72
2017-09-27T03:57:21.842Z,64.53
2017-09-27T03:58:02.297Z,64.82
2017-09-27T03:58:42.752Z,64.43
2017-09-27T03:59:23.211Z,64.72
2017-09-27T04:00:03.677Z,64.72
2017-09-27T04:00:44.122Z,64.63
2017-09-27T04:01:24.584Z,64.34
2017-09-27T04:02:05.026Z,64.34
2017-09-27T04:02:45.483Z,64.24
2017-09-27T04:03:25.939Z,64.15
2017-09-27T04:04:06.385Z,64.37
2017-09-27T04:04:46.844Z,64.56
2017-09-27T04:05:27.305Z,63.98
2017-09-27T04:06:07.775Z,64.05
2017-09-27T04:06:48.226Z,63.98
2017-09-27T04:07:28.686Z,64.05
2017-09-27T04:08:09.142Z,64.24
2017-09-27T04:08:49.594Z,63.98
2017-09-27T04:09:30.047Z,63.95
2017-09-27T04:10:10.497Z,63.95
2017-09-27T04:10:50.951Z,64.08
2017-09-27T04:11:31.404Z,63.98
2017-09-27T04:12:11.858Z,63.98
2017-09-27T04:12:52.307Z,63.7
2017-09-27T04:13:32.752Z,63.6
2017-09-27T04:14:13.200Z,63.4
2017-09-27T04:14:53.659Z,63.5
2017-09-27T04:15:34.118Z,63.7
2017-09-27T04:16:14.559Z,63.7
2017-09-27T04:16:55.007Z,63.6
2017-09-27T04:17:35.460Z,63.79
2017-09-27T04:18:15.918Z,63.89
2017-09-27T04:18:56.372Z,63.89
2017-09-27T04:19:36.826Z,63.5
2017-09-27T04:20:17.283Z,63.89
2017-09-27T04:20:57.730Z,63.79
2017-09-27T04:21:38.171Z,63.79
2017-09-27T04:22:18.619Z,63.7
2017-09-27T04:22:59.073Z,63.79
2017-09-27T04:23:39.523Z,63.7
2017-09-27T04:24:19.988Z,63.79
2017-09-27T04:25:00.433Z,63.79
2017-09-27T04:25:40.883Z,63.6
2017-09-27T04:26:21.319Z,63.4
2017-09-27T04:27:01.786Z,63.6
2017-09-27T04:27:42.232Z,63.6
2017-09-27T04:28:22.676Z,63.5
2017-09-27T04:29:03.123Z,63.4
2017-09-27T04:29:43.590Z,63.6
2017-09-27T04:30:24.092Z,63.31
2017-09-27T04:31:04.530Z,63.5
2017-09-27T04:31:44.980Z,63.02
2017-09-27T04:32:25.433Z,63.4
2017-09-27T04:33:05.887Z,63.7
2017-09-27T04:33:46.349Z,63.6
2017-09-27T04:34:26.809Z,63.7
2017-09-27T04:35:07.257Z,63.12
2017-09-27T04:35:47.709Z,63.12
2017-09-27T04:36:28.158Z,63.02
2017-09-27T04:37:08.608Z,63.12
2017-09-27T04:37:49.066Z,62.92
2017-09-27T04:38:29.519Z,63.21
2017-09-27T04:39:09.973Z,63.21
2017-09-27T04:39:50.421Z,63.31
2017-09-27T04:40:30.871Z,63.12
2017-09-27T04:41:11.363Z,63.12
2017-09-27T04:41:51.832Z,63.34
2017-09-27T04:42:32.293Z,63.5
2017-09-27T04:43:12.745Z,63.31
2017-09-27T04:43:53.194Z,63.31
2017-09-27T04:44:33.645Z,63.31
2017-09-27T04:45:14.090Z,62.92
2017-09-27T04:45:54.543Z,62.92
2017-09-27T04:46:34.997Z,63.02
2017-09-27T04:47:15.474Z,62.82
2017-09-27T04:47:55.918Z,63.12
2017-09-27T04:48:36.375Z,62.92
2017-09-27T04:49:16.828Z,62.82
2017-09-27T04:49:57.266Z,62.92
2017-09-27T04:50:37.724Z,62.82
2017-09-27T04:51:18.171Z,63.02
2017-09-27T04:51:58.620Z,63.02
2017-09-27T04:52:39.049Z,62.86
2017-09-27T04:53:19.498Z,63.02
2017-09-27T04:53:59.946Z,63.05
2017-09-27T04:54:40.400Z,63.02
2017-09-27T04:55:20.833Z,63.05
2017-09-27T04:56:01.251Z,62.92
2017-09-27T04:56:41.640Z,63.05
2017-09-27T04:57:22.090Z,62.82
2017-09-27T04:58:02.491Z,63.12
2017-09-27T04:58:42.890Z,63.34
2017-09-27T04:59:23.364Z,63.02
2017-09-27T05:00:03.763Z,63.21
2017-09-27T05:00:44.165Z,63.02
2017-09-27T05:01:24.623Z,63.02
2017-09-27T05:03:22.298Z,63.12
2017-09-27T05:04:02.745Z,63.12
2017-09-27T05:04:43.197Z,62.92
2017-09-27T05:05:23.654Z,63.12
2017-09-27T05:06:04.112Z,63.02
2017-09-27T05:06:44.557Z,62.92
2017-09-27T05:07:25.008Z,63.02
2017-09-27T05:08:05.452Z,62.92
2017-09-27T05:08:45.866Z,62.82
2017-09-27T05:09:26.308Z,63.02
2017-09-27T05:10:06.771Z,63.12
2017-09-27T05:10:47.235Z,62.73
2017-09-27T05:11:27.674Z,62.82
2017-09-27T05:12:08.117Z,62.82
2017-09-27T05:12:48.572Z,63.02
2017-09-27T05:14:36.091Z,62.92
2017-09-27T05:15:16.555Z,62.82
2017-09-27T05:15:57.032Z,63.12
2017-09-27T05:16:37.530Z,63.12
2017-09-27T05:17:17.991Z,63.5
2017-09-27T05:17:58.453Z,63.5
2017-09-27T05:18:38.906Z,63.02
2017-09-27T05:19:19.363Z,63.12
2017-09-27T05:19:59.812Z,63.21
2017-09-27T05:20:40.288Z,63.21
2017-09-27T05:21:20.715Z,63.31
2017-09-27T05:22:01.170Z,63.21
2017-09-27T05:22:41.625Z,63.02
2017-09-27T05:23:22.081Z,63.21
2017-09-27T05:24:02.543Z,63.02
2017-09-27T05:24:42.999Z,63.12
2017-09-27T05:25:23.446Z,63.02
2017-09-27T05:26:03.909Z,63.02
2017-09-27T05:26:44.348Z,63.12
2017-09-27T05:27:24.805Z,63.02
2017-09-27T05:28:05.255Z,63.31
2017-09-27T05:28:45.734Z,63.4
2017-09-27T05:29:26.184Z,63.21
2017-09-27T05:30:06.638Z,63.5
2017-09-27T05:30:47.099Z,63.4
2017-09-27T05:31:27.549Z,63.4
2017-09-27T05:32:07.998Z,63.4
2017-09-27T05:32:48.453Z,63.6
2017-09-27T05:33:28.912Z,63.21
2017-09-27T05:34:09.366Z,63.12
2017-09-27T05:34:49.820Z,63.02
2017-09-27T05:35:30.274Z,63.02
2017-09-27T05:36:10.733Z,63.02
2017-09-27T05:36:51.211Z,63.12
2017-09-27T05:37:31.664Z,63.12
2017-09-27T05:38:12.110Z,63.02
2017-09-27T05:38:52.570Z,63.7
2017-09-27T05:39:32.997Z,63.31
2017-09-27T05:40:13.452Z,63.31
2017-09-27T05:40:53.904Z,63.7
2017-09-27T05:41:34.356Z,63.02
2017-09-27T05:42:14.796Z,63.7
2017-09-27T05:42:55.252Z,63.02
2017-09-27T05:43:35.699Z,63.02
2017-09-27T05:44:16.161Z,62.92
2017-09-27T05:44:56.605Z,63.02
2017-09-27T05:45:37.065Z,63.02
2017-09-27T05:46:17.523Z,63.21
2017-09-27T05:46:57.974Z,63.21
2017-09-27T05:47:38.428Z,63.21
2017-09-27T05:48:18.882Z,63.31
2017-09-27T05:48:59.338Z,63.21
2017-09-27T05:49:39.786Z,63.4
2017-09-27T05:50:20.245Z,63.12
2017-09-27T05:51:00.695Z,63.12
2017-09-27T05:51:41.147Z,63.31
2017-09-27T05:52:21.640Z,63.31
2017-09-27T05:53:02.053Z,63.21
2017-09-27T05:53:42.522Z,63.21
2017-09-27T05:54:22.948Z,63.12
2017-09-27T05:55:03.398Z,63.21
2017-09-27T05:55:43.852Z,63.21
2017-09-27T05:56:24.294Z,62.92
2017-09-27T05:57:04.770Z,62.92
2017-09-27T05:57:45.210Z,62.92
2017-09-27T05:58:25.661Z,62.92
2017-09-27T05:59:06.119Z,62.92
2017-09-27T05:59:46.579Z,62.92
2017-09-27T06:00:27.031Z,62.82
2017-09-27T06:01:07.486Z,63.02
2017-09-27T06:01:47.942Z,62.73
2017-09-27T06:02:28.414Z,63.02
2017-09-27T06:03:08.860Z,63.02
2017-09-27T06:03:49.321Z,63.02
2017-09-27T06:04:29.776Z,62.92
2017-09-27T06:05:10.232Z,63.02
2017-09-27T06:05:50.683Z,62.92
2017-09-27T06:06:31.143Z,62.73
2017-09-27T06:07:11.597Z,62.82
2017-09-27T06:07:52.047Z,62.92
2017-09-27T06:08:32.494Z,63.02
2017-09-27T06:09:12.945Z,62.82
2017-09-27T06:09:53.404Z,62.82
2017-09-27T06:10:33.864Z,62.73
2017-09-27T06:11:14.322Z,62.92
2017-09-27T06:11:54.777Z,62.73
2017-09-27T06:12:35.232Z,62.73
2017-09-27T06:13:15.687Z,62.73
2017-09-27T06:13:56.141Z,62.82
2017-09-27T06:14:36.598Z,62.92
2017-09-27T06:15:17.053Z,62.92
2017-09-27T06:15:57.513Z,62.82
2017-09-27T06:16:37.968Z,63.02
2017-09-27T06:17:18.420Z,63.02
2017-09-27T06:17:58.872Z,62.82
2017-09-27T06:18:39.317Z,63.02
2017-09-27T06:19:19.769Z,62.82
2017-09-27T06:20:00.232Z,62.92
2017-09-27T06:20:40.688Z,63.02
2017-09-27T06:21:21.132Z,62.92
2017-09-27T06:22:01.584Z,63.02
2017-09-27T06:22:42.040Z,62.82
2017-09-27T06:23:22.511Z,63.02
2017-09-27T06:24:02.947Z,63.02
2017-09-27T06:24:43.403Z,62.82
2017-09-27T06:25:23.860Z,62.82
2017-09-27T06:26:04.316Z,62.92
2017-09-27T06:26:44.763Z,62.82
2017-09-27T06:27:25.208Z,63.02
2017-09-27T06:28:05.655Z,62.92
2017-09-27T06:28:46.105Z,63.02
2017-09-27T06:29:26.562Z,62.92
2017-09-27T06:30:07.022Z,62.73
2017-09-27T06:30:47.480Z,63.12
2017-09-27T06:31:27.928Z,62.82
2017-09-27T06:32:08.396Z,62.82
2017-09-27T06:32:48.852Z,63.02
2017-09-27T06:33:29.320Z,62.73
2017-09-27T06:34:09.763Z,62.92
2017-09-27T06:34:50.214Z,63.02
2017-09-27T06:35:30.669Z,62.92
2017-09-27T06:36:11.125Z,62.82
2017-09-27T06:36:51.563Z,63.12
2017-09-27T06:37:32.015Z,62.82
2017-09-27T06:38:12.471Z,63.02
2017-09-27T06:38:52.911Z,63.02
2017-09-27T06:39:33.365Z,62.92
2017-09-27T06:40:13.807Z,63.12
2017-09-27T06:40:54.254Z,63.02
2017-09-27T06:41:34.706Z,63.12
2017-09-27T06:42:15.162Z,63.02
2017-09-27T06:42:55.614Z,62.54
2017-09-27T06:43:36.071Z,63.02
2017-09-27T06:44:16.518Z,63.5
2017-09-27T06:44:56.968Z,63.21
2017-09-27T06:45:37.407Z,62.82
2017-09-27T06:46:17.855Z,62.82
2017-09-27T06:46:58.294Z,62.73
2017-09-27T06:47:38.751Z,62.73
2017-09-27T06:48:19.197Z,62.63
2017-09-27T06:48:59.643Z,62.63
2017-09-27T06:49:40.097Z,62.73
2017-09-27T06:50:20.545Z,62.63
2017-09-27T06:51:00.977Z,62.82
2017-09-27T06:51:41.427Z,62.73
2017-09-27T06:52:21.888Z,62.54
2017-09-27T06:53:02.339Z,62.73
2017-09-27T06:53:42.841Z,62.73
2017-09-27T06:54:23.255Z,62.82
2017-09-27T06:55:03.704Z,62.73
2017-09-27T06:55:44.149Z,63.02
2017-09-27T06:56:24.605Z,62.73
2017-09-27T06:57:05.060Z,62.73
2017-09-27T06:57:45.519Z,62.73
2017-09-27T06:58:25.980Z,62.82
2017-09-27T06:59:06.440Z,62.82
2017-09-27T06:59:46.885Z,62.82
2017-09-27T07:00:27.337Z,62.63
2017-09-27T07:01:07.782Z,62.63
2017-09-27T07:01:48.250Z,62.73
2017-09-27T07:02:28.700Z,62.82
2017-09-27T07:03:09.155Z,62.73
2017-09-27T07:03:49.616Z,62.82
2017-09-27T07:04:30.070Z,62.73
2017-09-27T07:05:10.529Z,62.82
2017-09-27T07:05:50.977Z,62.82
2017-09-27T07:06:31.448Z,62.82
2017-09-27T07:07:11.888Z,62.73
2017-09-27T07:07:52.336Z,62.73
2017-09-27T07:08:32.786Z,62.82
2017-09-27T07:09:13.244Z,62.63
2017-09-27T07:09:53.716Z,62.82
2017-09-27T07:10:34.164Z,62.82
2017-09-27T07:11:14.613Z,62.54
2017-09-27T07:11:55.055Z,62.73
2017-09-27T07:12:35.502Z,62.73
2017-09-27T07:13:15.958Z,62.82
2017-09-27T07:13:56.414Z,62.92
2017-09-27T07:14:36.868Z,62.63
2017-09-27T07:15:17.321Z,62.82
2017-09-27T07:15:57.956Z,62.73
2017-09-27T07:16:38.404Z,62.73
2017-09-27T07:17:18.842Z,62.92
2017-09-27T07:17:59.299Z,62.54
2017-09-27T07:18:39.756Z,62.44
2017-09-27T07:19:20.254Z,62.63
2017-09-27T07:20:00.743Z,62.63
2017-09-27T07:20:41.260Z,62.54
2017-09-27T07:21:21.820Z,62.54
2017-09-27T07:22:02.354Z,62.73
2017-09-27T07:22:42.800Z,62.34
2017-09-27T07:23:23.252Z,62.25
2017-09-27T07:24:03.847Z,62.15
2017-09-27T07:24:44.306Z,62.47
2017-09-27T07:25:24.740Z,62.37
2017-09-27T07:26:05.194Z,62.47
2017-09-27T07:26:45.661Z,62.15
2017-09-27T07:27:26.103Z,62.08
2017-09-27T07:28:06.694Z,62.28
2017-09-27T07:28:47.720Z,62.18
2017-09-27T07:29:28.275Z,61.89
2017-09-27T07:30:08.644Z,62.18
2017-09-27T07:30:49.137Z,62.18
2017-09-27T07:31:29.552Z,61.89
2017-09-27T07:32:10.009Z,61.89
2017-09-27T07:32:50.419Z,62.18
2017-09-27T07:33:30.833Z,61.8
2017-09-27T07:34:11.283Z,61.7
2017-09-27T07:34:51.740Z,61.73
2017-09-27T07:35:32.197Z,61.34
2017-09-27T07:36:12.649Z,61.63
2017-09-27T07:36:53.093Z,61.44
2017-09-27T07:37:33.552Z,61.54
2017-09-27T07:38:14.010Z,61.54
2017-09-27T07:38:54.450Z,61.54
2017-09-27T07:39:34.907Z,61.15
2017-09-27T07:40:15.360Z,60.76
2017-09-27T07:40:55.812Z,60.96
2017-09-27T07:41:36.289Z,60.96
2017-09-27T07:42:16.749Z,60.96
2017-09-27T07:42:57.207Z,60.86
2017-09-27T07:43:37.670Z,60.86
2017-09-27T07:44:18.124Z,61.05
2017-09-27T07:44:58.583Z,61.05
2017-09-27T07:45:39.038Z,60.96
2017-09-27T07:46:19.484Z,61.15
2017-09-27T07:46:59.936Z,60.96
2017-09-27T07:47:40.394Z,60.96
2017-09-27T07:48:20.850Z,61.05
2017-09-27T07:49:01.304Z,61.25
2017-09-27T07:49:41.732Z,61.05
2017-09-27T07:50:22.163Z,61.15
2017-09-27T07:51:02.637Z,61.34
2017-09-27T07:51:43.082Z,61.54
2017-09-27T07:52:23.536Z,61.34
2017-09-27T07:53:04.012Z,61.63
2017-09-27T07:53:44.461Z,61.25
2017-09-27T07:54:24.913Z,61.25
2017-09-27T07:55:05.363Z,61.44
2017-09-27T07:55:45.821Z,61.34
2017-09-27T07:56:26.315Z,61.34
2017-09-27T07:57:07.651Z,61.15
2017-09-27T07:57:48.100Z,61.44
2017-09-27T07:58:28.548Z,61.51
2017-09-27T07:59:09.050Z,61.41
2017-09-27T07:59:49.511Z,61.41
2017-09-27T08:00:29.970Z,61.51
2017-09-27T08:01:10.439Z,61.41
2017-09-27T08:01:50.891Z,61.15
2017-09-27T08:02:31.344Z,61.34
2017-09-27T08:03:11.809Z,61.41
2017-09-27T08:03:52.272Z,61.25
2017-09-27T08:04:32.702Z,61.54
2017-09-27T08:05:13.150Z,61.34
2017-09-27T08:05:53.616Z,60.96
2017-09-27T08:06:34.105Z,61.05
2017-09-27T08:08:26.708Z,60.76
2017-09-27T08:09:07.148Z,60.96
2017-09-27T08:09:47.609Z,60.86
2017-09-27T08:10:28.114Z,61.05
2017-09-27T08:11:08.560Z,61.05
2017-09-27T08:11:49.022Z,60.57
2017-09-27T08:12:29.528Z,60.28
2017-09-27T08:13:09.986Z,60.69
2017-09-27T08:13:50.483Z,60.11
2017-09-27T08:14:30.936Z,60.11
2017-09-27T08:15:11.386Z,59.92
2017-09-27T08:15:51.837Z,60.11
2017-09-27T08:18:10.995Z,60.5
2017-09-27T08:18:51.448Z,60.21
2017-09-27T08:19:31.911Z,60.21
2017-09-27T08:20:12.351Z,60.21
2017-09-27T08:20:52.797Z,60.11
2017-09-27T08:21:33.247Z,60.02
2017-09-27T08:22:13.979Z,60.11
2017-09-27T08:22:54.446Z,60.02
2017-09-27T08:23:34.915Z,60.31
2017-09-27T08:24:15.382Z,60.31
2017-09-27T08:24:55.847Z,60.02
2017-09-27T08:25:36.297Z,60.11
2017-09-27T08:26:16.742Z,60.21
2017-09-27T08:26:57.193Z,60.11
2017-09-27T08:27:37.649Z,60.21
2017-09-27T08:28:18.097Z,60.21
2017-09-27T08:28:58.540Z,60.02
2017-09-27T08:29:38.996Z,60.31
2017-09-27T08:30:19.469Z,60.11
2017-09-27T08:30:59.918Z,59.63
2017-09-27T08:31:40.367Z,59.44
2017-09-27T08:32:20.824Z,60.11
2017-09-27T08:33:01.281Z,60.31
2017-09-27T08:33:41.734Z,59.73
2017-09-27T08:34:22.185Z,60.31
2017-09-27T08:35:02.640Z,59.73
2017-09-27T08:35:43.097Z,60.02
2017-09-27T08:36:23.573Z,59.83
2017-09-27T08:37:04.026Z,59.95
2017-09-27T08:37:44.483Z,59.95
2017-09-27T08:38:24.933Z,59.66
2017-09-27T08:39:05.392Z,59.56
2017-09-27T08:39:45.853Z,59.95
2017-09-27T08:40:26.297Z,59.76
2017-09-27T08:41:06.748Z,59.66
2017-09-27T08:41:47.197Z,59.76
2017-09-27T08:42:27.650Z,59.38
2017-09-27T08:43:08.090Z,59.08
2017-09-27T08:43:48.551Z,59.08
2017-09-27T08:44:28.999Z,59.11
2017-09-27T08:45:09.454Z,59.11
2017-09-27T08:45:49.927Z,59.01
2017-09-27T08:46:30.360Z,58.92
2017-09-27T08:47:10.812Z,58.63
2017-09-27T08:47:51.267Z,58.82
2017-09-27T08:48:31.728Z,58.63
2017-09-27T08:51:51.423Z,57.88
2017-09-27T08:52:31.889Z,58.27
2017-09-27T08:53:12.341Z,57.79
2017-09-27T08:53:52.783Z,57.98
2017-09-27T08:54:33.233Z,57.88
2017-09-27T08:56:20.721Z,57.98
2017-09-27T08:57:01.243Z,57.88
2017-09-27T08:57:41.693Z,58.17
2017-09-27T08:58:22.151Z,57.98
2017-09-27T08:59:02.607Z,57.59
2017-09-27T08:59:43.055Z,57.81
2017-09-27T09:00:23.509Z,57.53
2017-09-27T09:01:03.958Z,57.59
2017-09-27T09:02:51.349Z,57.91
2017-09-27T09:03:31.808Z,57.23
2017-09-27T09:04:12.261Z,57.33
2017-09-27T09:04:52.707Z,57.33
2017-09-27T09:05:33.171Z,57.04
2017-09-27T09:06:13.613Z,57.04
2017-09-27T09:06:54.073Z,56.85
2017-09-27T09:07:34.519Z,57.23
2017-09-27T09:08:15.002Z,57.33
2017-09-27T09:08:55.477Z,57.23
2017-09-27T09:09:35.989Z,57.43
2017-09-27T09:10:16.447Z,56.94